Time;durP1;ratioP1;P1;durP2;ratioP2;P2;SDS_P1;SDS_P2;PMS_P1;PMS_P2;Temp;Humidity;BMP_temperature;BMP_pressure;BME280_temperature;BME280_humidity;BME280_pressure;Samples;Min_cycle;Max_cycle;Signal;HPM_P1;HPM_P2
2021/06/24 00:00:00;;;;;;;15.57;8.00;;;;;;;14.46;92.77;101391.25;5094244;28;20194;-71
2021/06/24 00:02:25;;;;;;;14.33;7.83;;;;;;;14.47;93.44;101398.38;5093606;28;20170;-72
2021/06/24 00:04:51;;;;;;;15.70;8.80;;;;;;;14.54;93.11;101394.38;5094112;28;20192;-72
2021/06/24 00:07:16;;;;;;;18.47;9.60;;;;;;;14.44;93.79;101387.81;5092670;28;20194;-71
2021/06/24 00:09:41;;;;;;;15.40;9.53;;;;;;;14.53;94.03;101387.28;5093682;28;20170;-71
2021/06/24 00:12:07;;;;;;;17.57;9.67;;;;;;;14.55;93.59;101385.34;5093783;28;20223;-71
2021/06/24 00:14:32;;;;;;;18.77;9.83;;;;;;;14.45;93.58;101385.97;5093118;28;20218;-70
2021/06/24 00:16:58;;;;;;;17.10;9.90;;;;;;;14.40;93.55;101384.41;5091999;28;20243;-72
2021/06/24 00:19:23;;;;;;;13.43;9.17;;;;;;;14.33;93.56;101376.81;5092131;28;20174;-72
2021/06/24 00:21:48;;;;;;;20.40;10.03;;;;;;;14.30;93.63;101379.69;5091938;28;20170;-71
2021/06/24 00:24:14;;;;;;;15.00;9.40;;;;;;;14.30;92.87;101380.56;5093337;28;20291;-71
2021/06/24 00:26:39;;;;;;;17.10;8.93;;;;;;;14.31;92.42;101376.91;5093056;28;20182;-71
2021/06/24 00:29:04;;;;;;;21.23;9.40;;;;;;;14.30;92.67;101369.81;5093510;28;20540;-71
2021/06/24 00:31:29;;;;;;;16.53;8.73;;;;;;;14.24;92.80;101358.59;5093323;28;20196;-72
2021/06/24 00:33:55;;;;;;;15.07;9.57;;;;;;;14.19;93.43;101358.00;5092162;28;20263;-71
2021/06/24 00:36:20;;;;;;;14.90;9.10;;;;;;;14.24;93.14;101353.22;5091460;28;20202;-71
2021/06/24 00:38:45;;;;;;;14.70;9.13;;;;;;;14.24;92.46;101343.34;5091856;28;20202;-71
2021/06/24 00:41:11;;;;;;;14.40;9.13;;;;;;;14.26;92.42;101336.06;5094853;28;20195;-71
2021/06/24 00:43:36;;;;;;;19.47;8.97;;;;;;;14.18;92.51;101337.47;5095968;28;20692;-71
2021/06/24 00:46:02;;;;;;;12.03;8.90;;;;;;;14.23;92.26;101338.06;5096990;28;21780;-71
2021/06/24 00:48:27;;;;;;;13.70;8.63;;;;;;;14.28;91.58;101338.66;5095751;28;20208;-70
2021/06/24 00:50:52;;;;;;;14.83;8.77;;;;;;;14.24;91.68;101337.09;5095807;28;20657;-71
2021/06/24 00:53:18;;;;;;;16.10;8.93;;;;;;;14.22;91.95;101333.66;5095357;28;20166;-71
2021/06/24 00:55:45;;;;;;;11.93;8.63;;;;;;;14.20;91.89;101333.75;5078265;28;20180;-71
2021/06/24 00:58:20;;;;;;;14.40;9.67;;;;;;;14.21;92.08;101334.59;5095675;28;20534;-71
2021/06/24 01:00:47;;;;;;;15.13;8.97;;;;;;;14.13;91.96;101350.31;5096611;28;20170;-71
2021/06/24 01:03:13;;;;;;;18.63;9.80;;;;;;;14.13;92.49;101345.81;5095715;28;20171;-71
2021/06/24 01:05:39;;;;;;;16.37;8.97;;;;;;;14.08;92.25;101359.47;5095234;28;20253;-71
2021/06/24 01:08:06;;;;;;;24.30;10.63;;;;;;;14.13;92.21;101361.91;5094926;28;20796;-71
2021/06/24 01:10:31;;;;;;;15.70;9.97;;;;;;;14.13;93.04;101363.75;5094919;28;20173;-71
2021/06/24 01:12:57;;;;;;;17.93;9.70;;;;;;;14.26;92.17;101370.09;5095177;28;20538;-71
2021/06/24 01:15:22;;;;;;;18.73;8.87;;;;;;;14.26;91.42;101372.78;5096400;28;20216;-71
2021/06/24 01:17:47;;;;;;;14.87;9.67;;;;;;;14.22;91.76;101372.09;5094783;28;20249;-71
2021/06/24 01:20:14;;;;;;;11.83;8.83;;;;;;;14.19;92.36;101376.78;5094991;28;20170;-71
2021/06/24 01:22:39;;;;;;;15.80;9.13;;;;;;;14.19;92.40;101374.09;5095079;28;20631;-71
2021/06/24 01:25:05;;;;;;;13.77;9.10;;;;;;;14.13;92.61;101388.75;5095503;28;20260;-71
2021/06/24 01:27:30;;;;;;;10.40;9.30;;;;;;;14.09;93.00;101388.03;5096435;28;20306;-71
2021/06/24 01:29:55;;;;;;;14.50;8.87;;;;;;;14.05;92.96;101385.63;5094964;28;20636;-72
2021/06/24 01:32:21;;;;;;;15.80;9.40;;;;;;;14.06;93.45;101388.22;5096060;28;20171;-71
2021/06/24 01:34:46;;;;;;;16.77;10.13;;;;;;;14.04;93.40;101387.47;5094833;28;20185;-72
2021/06/24 01:37:12;;;;;;;16.33;9.03;;;;;;;14.09;93.10;101380.00;5094392;28;20294;-71
2021/06/24 01:39:37;;;;;;;17.60;9.63;;;;;;;14.17;92.56;101384.94;5095889;28;20174;-71
2021/06/24 01:42:03;;;;;;;12.33;8.50;;;;;;;14.20;92.12;101379.38;5077479;28;20178;-71
2021/06/24 01:44:33;;;;;;;14.83;9.00;;;;;;;14.22;92.15;101379.28;5077655;28;20179;-71
2021/06/24 01:46:59;;;;;;;14.20;8.63;;;;;;;14.19;92.30;101374.97;5077501;28;20281;-72
2021/06/24 01:49:25;;;;;;;12.93;9.40;;;;;;;14.19;91.87;101382.16;5094412;28;20174;-72
2021/06/24 01:51:50;;;;;;;18.27;9.40;;;;;;;14.21;91.63;101383.78;5095103;28;20561;-71
2021/06/24 01:54:22;;;;;;;11.53;8.90;;;;;;;14.25;90.93;101384.47;5093557;28;20249;-71
2021/06/24 01:56:48;;;;;;;15.13;9.30;;;;;;;14.10;91.23;101388.91;5095395;28;20202;-71
2021/06/24 01:59:14;;;;;;;15.00;9.47;;;;;;;13.99;92.13;101383.31;5094156;28;20170;-72
2021/06/24 02:01:39;;;;;;;12.00;9.00;;;;;;;13.86;92.67;101387.69;5095578;28;20209;-72
2021/06/24 02:04:04;;;;;;;13.73;8.47;;;;;;;13.84;92.32;101386.91;5094027;28;20190;-72
2021/06/24 02:06:30;;;;;;;13.70;9.13;;;;;;;13.81;92.38;101381.72;5094058;28;20739;-71
2021/06/24 02:08:55;;;;;;;15.93;9.90;;;;;;;13.77;92.38;101381.03;5094095;28;20194;-71
2021/06/24 02:11:20;;;;;;;14.40;9.33;;;;;;;13.75;92.67;101382.91;5093955;28;20178;-72
2021/06/24 02:13:46;;;;;;;19.83;9.80;;;;;;;13.67;93.12;101383.34;5095325;28;20294;-70
2021/06/24 02:16:11;;;;;;;15.17;10.10;;;;;;;13.70;93.13;101379.63;5095002;28;20218;-71
2021/06/24 02:18:36;;;;;;;15.47;10.40;;;;;;;13.69;93.28;101385.94;5076859;28;20224;-71
2021/06/24 02:21:02;;;;;;;15.93;10.00;;;;;;;13.83;92.78;101387.84;5095000;28;20224;-71
2021/06/24 02:23:27;;;;;;;14.80;10.47;;;;;;;13.87;92.43;101389.41;5095096;28;20185;-71
2021/06/24 02:25:52;;;;;;;20.30;9.97;;;;;;;13.88;92.07;101394.69;5093861;28;20181;-71
2021/06/24 02:28:18;;;;;;;13.90;9.07;;;;;;;13.89;91.86;101391.03;5094007;28;20188;-71
2021/06/24 02:30:43;;;;;;;16.50;9.53;;;;;;;13.83;92.09;101380.69;5094896;28;20596;-71
2021/06/24 02:33:10;;;;;;;13.73;10.63;;;;;;;13.82;92.38;101387.00;5094849;28;20547;-70
2021/06/24 02:35:36;;;;;;;18.73;10.47;;;;;;;13.83;92.21;101391.41;5076770;28;20205;-71
2021/06/24 02:38:01;;;;;;;15.10;10.90;;;;;;;13.77;92.82;101386.41;5076397;28;20256;-71
2021/06/24 02:40:26;;;;;;;16.53;10.33;;;;;;;13.74;93.10;101383.84;5094851;28;20174;-71
2021/06/24 02:42:52;;;;;;;24.70;11.30;;;;;;;13.73;93.24;101388.38;5093330;28;20177;-71
2021/06/24 02:45:17;;;;;;;16.50;11.10;;;;;;;13.73;93.28;101388.38;5094508;28;20171;-72
2021/06/24 02:47:42;;;;;;;16.83;10.80;;;;;;;13.73;93.53;101379.44;5094406;28;20201;-71
2021/06/24 02:50:09;;;;;;;16.23;10.50;;;;;;;13.77;93.21;101375.66;5093639;28;20307;-71
2021/06/24 02:52:35;;;;;;;15.63;10.10;;;;;;;13.74;93.46;101383.84;5093187;28;20195;-71
2021/06/24 02:55:01;;;;;;;16.00;9.97;;;;;;;13.68;93.81;101387.75;5092993;28;20171;-71
2021/06/24 02:57:27;;;;;;;18.37;10.50;;;;;;;13.61;92.51;101380.16;5093006;28;20660;-71
2021/06/24 02:59:52;;;;;;;16.90;9.27;;;;;;;13.40;93.18;101377.75;5093069;28;20173;-71
2021/06/24 03:02:17;;;;;;;17.73;11.17;;;;;;;13.39;94.60;101376.03;5093535;28;20178;-71
2021/06/24 03:04:43;;;;;;;16.87;10.83;;;;;;;13.53;95.01;101382.41;5092566;28;20621;-71
2021/06/24 03:07:08;;;;;;;21.37;11.00;;;;;;;13.53;94.87;101371.69;5092853;28;20202;-71
2021/06/24 03:09:34;;;;;;;16.50;10.07;;;;;;;13.50;94.52;101371.88;5093309;28;20619;-71
2021/06/24 03:11:59;;;;;;;18.63;9.93;;;;;;;13.48;94.78;101369.28;5094125;28;20185;-71
2021/06/24 03:14:24;;;;;;;21.20;10.37;;;;;;;13.53;94.51;101377.06;5098023;28;20181;-71
2021/06/24 03:16:50;;;;;;;16.00;10.57;;;;;;;13.62;94.55;101376.53;5094137;28;20195;-71
2021/06/24 03:19:15;;;;;;;15.10;10.70;;;;;;;13.66;94.31;101376.25;5094353;28;20166;-71
2021/06/24 03:21:40;;;;;;;18.23;10.77;;;;;;;13.66;93.79;101378.06;5092513;28;20178;-71
2021/06/24 03:24:07;;;;;;;16.07;9.63;;;;;;;13.69;93.61;101370.72;5092638;28;20179;-71
2021/06/24 03:26:32;;;;;;;16.67;10.53;;;;;;;13.67;93.65;101369.94;5075579;28;20197;-71
2021/06/24 03:28:58;;;;;;;15.10;9.83;;;;;;;13.72;93.58;101367.84;5093749;28;20627;-71
2021/06/24 03:31:23;;;;;;;15.80;9.90;;;;;;;13.78;93.19;101366.66;5092497;28;20173;-71
2021/06/24 03:33:49;;;;;;;15.50;10.53;;;;;;;13.83;92.50;101377.13;5092355;28;20170;-72
2021/06/24 03:36:14;;;;;;;16.33;10.13;;;;;;;13.84;92.31;101376.16;5092209;28;20247;-71
2021/06/24 03:38:44;;;;;;;21.40;10.53;;;;;;;13.90;91.97;101365.94;5075641;28;20178;-71
2021/06/24 03:41:09;;;;;;;19.60;10.53;;;;;;;14.04;91.30;101362.44;5093296;28;20619;-72
2021/06/24 03:43:34;;;;;;;12.83;9.77;;;;;;;14.01;90.86;101365.31;5092561;28;20178;-71
2021/06/24 03:45:59;;;;;;;16.20;9.87;;;;;;;14.02;91.29;101361.66;5093436;28;20212;-71
2021/06/24 03:48:25;;;;;;;14.63;8.90;;;;;;;14.04;90.73;101365.13;5092332;28;20170;-71
2021/06/24 03:50:50;;;;;;;12.83;8.20;;;;;;;14.00;89.28;101360.88;5093304;28;20192;-70
2021/06/24 03:53:15;;;;;;;14.50;8.77;;;;;;;14.00;90.64;101352.84;5075135;28;20178;-71
2021/06/24 03:55:43;;;;;;;13.27;8.27;;;;;;;13.98;90.23;101346.69;5093625;28;20609;-70
2021/06/24 03:58:09;;;;;;;14.77;8.23;;;;;;;14.02;90.35;101349.09;5092170;28;20210;-71
2021/06/24 04:00:37;;;;;;;18.90;8.53;;;;;;;14.04;90.27;101351.69;5092037;28;20256;-63
2021/06/24 04:03:03;;;;;;;15.30;8.50;;;;;;;14.09;89.59;101350.47;5093487;28;20170;-63
2021/06/24 04:05:31;;;;;;;21.23;10.40;;;;;;;14.00;90.16;101334.06;5092050;28;20181;-63
2021/06/24 04:07:58;;;;;;;13.70;9.77;;;;;;;13.96;90.80;101340.56;5106300;22;20265;-65
2021/06/24 04:10:24;;;;;;;14.27;9.93;;;;;;;14.17;90.08;101346.50;5091835;28;20699;-66
2021/06/24 04:12:49;;;;;;;15.20;10.53;;;;;;;14.22;90.60;101345.25;5093117;28;20196;-67
2021/06/24 04:15:15;;;;;;;20.60;9.73;;;;;;;14.21;89.86;101339.97;5093084;28;20174;-67
2021/06/24 04:17:40;;;;;;;22.13;9.97;;;;;;;14.21;89.80;101337.28;5096194;28;20213;-67
2021/06/24 04:20:07;;;;;;;17.43;9.70;;;;;;;14.22;89.97;101333.66;5097341;28;20181;-66
2021/06/24 04:22:33;;;;;;;16.93;9.67;;;;;;;14.17;90.33;101327.69;5097651;28;20220;-66
2021/06/24 04:24:58;;;;;;;17.93;10.23;;;;;;;14.15;91.28;101326.94;5095980;28;20186;-65
2021/06/24 04:27:23;;;;;;;15.60;10.43;;;;;;;13.96;91.88;101319.97;5095906;28;20218;-65
2021/06/24 04:29:49;;;;;;;14.23;11.03;;;;;;;14.03;91.51;101324.00;5097421;28;20178;-66
2021/06/24 04:32:14;;;;;;;13.43;10.30;;;;;;;13.91;91.81;101319.38;5097497;28;20221;-66
2021/06/24 04:34:39;;;;;;;16.73;10.47;;;;;;;13.95;92.24;101317.38;5098010;28;20188;-66
2021/06/24 04:37:05;;;;;;;26.07;10.83;;;;;;;13.95;91.79;101323.59;5099168;28;20292;-65
2021/06/24 04:39:30;;;;;;;17.47;9.90;;;;;;;14.06;91.55;101328.31;5096478;28;20178;-67
2021/06/24 04:41:55;;;;;;;12.83;9.67;;;;;;;14.13;91.30;101335.06;5097868;28;20213;-67
2021/06/24 04:44:20;;;;;;;14.57;9.53;;;;;;;14.29;90.58;101333.19;5097010;28;20241;-66
2021/06/24 04:46:46;;;;;;;16.57;9.30;;;;;;;14.32;90.45;101332.13;5097676;28;20193;-65
2021/06/24 04:49:11;;;;;;;13.13;8.87;;;;;;;14.55;89.39;101334.31;5095824;28;20593;-65
2021/06/24 04:51:37;;;;;;;13.17;9.27;;;;;;;14.76;88.35;101331.25;5096553;28;20639;-65
2021/06/24 04:54:02;;;;;;;17.93;9.80;;;;;;;14.80;88.44;101330.97;5112597;28;20179;-66
2021/06/24 04:56:27;;;;;;;17.17;9.37;;;;;;;14.93;87.92;101333.75;5095245;28;20217;-71
2021/06/24 04:58:53;;;;;;;13.43;8.80;;;;;;;15.08;87.81;101340.84;5095553;28;20567;-71
2021/06/24 05:01:18;;;;;;;17.47;8.87;;;;;;;15.19;86.96;101326.69;5095755;28;20170;-71
2021/06/24 05:03:43;;;;;;;14.33;8.17;;;;;;;15.35;85.89;101337.34;5097212;28;20189;-69
2021/06/24 05:06:10;;;;;;;12.90;7.13;;;;;;;15.49;85.65;101340.00;5098511;28;20654;-71
2021/06/24 05:08:36;;;;;;;15.00;7.30;;;;;;;15.69;84.26;101326.13;5101585;28;20198;-71
2021/06/24 05:11:01;;;;;;;10.97;7.17;;;;;;;15.77;83.79;101333.69;5098759;28;20170;-69
2021/06/24 05:13:27;;;;;;;13.00;7.80;;;;;;;15.70;84.24;101327.88;5100469;28;20201;-69
2021/06/24 05:15:52;;;;;;;12.50;7.60;;;;;;;15.61;83.94;101336.56;5078693;28;20212;-70
2021/06/24 05:18:18;;;;;;;13.33;7.27;;;;;;;15.52;83.87;101339.78;5095271;28;20280;-69
2021/06/24 05:20:44;;;;;;;12.87;7.80;;;;;;;15.47;83.97;101331.16;5078876;28;20174;-69
2021/06/24 05:23:11;;;;;;;17.50;7.90;;;;;;;15.25;85.69;101327.19;5097777;28;20565;-71
2021/06/24 05:25:37;;;;;;;13.57;8.23;;;;;;;15.17;85.68;101329.50;5114863;28;20170;-70
2021/06/24 05:28:04;;;;;;;12.97;7.60;;;;;;;15.15;85.96;101328.72;5097244;28;20220;-69
2021/06/24 05:30:29;;;;;;;13.33;7.70;;;;;;;15.26;85.28;101322.69;5097469;28;20202;-70
2021/06/24 05:32:54;;;;;;;14.33;8.13;;;;;;;15.30;85.19;101313.44;5098030;28;20182;-69
2021/06/24 05:35:20;;;;;;;16.20;8.67;;;;;;;15.29;85.32;101311.72;5096071;28;20215;-69
2021/06/24 05:37:45;;;;;;;14.97;8.13;;;;;;;15.35;85.13;101310.47;5098677;28;20205;-70
2021/06/24 05:40:11;;;;;;;11.07;8.33;;;;;;;15.46;84.48;101303.41;5096512;28;20170;-70
2021/06/24 05:42:36;;;;;;;15.17;8.77;;;;;;;15.48;84.56;101303.28;5095938;28;20638;-71
2021/06/24 05:45:02;;;;;;;12.90;8.17;;;;;;;15.48;85.35;101311.38;5097388;28;20178;-71
2021/06/24 05:47:27;;;;;;;12.77;8.23;;;;;;;15.48;85.00;101303.28;5078680;28;20557;-71
2021/06/24 05:49:52;;;;;;;11.53;8.13;;;;;;;15.56;85.03;101304.50;5097462;28;20495;-72
2021/06/24 05:52:18;;;;;;;17.27;9.17;;;;;;;15.60;85.19;101299.81;5097525;28;20228;-70
2021/06/24 05:54:43;;;;;;;13.27;8.20;;;;;;;15.69;85.18;101306.44;5096305;28;20638;-69
2021/06/24 05:57:08;;;;;;;12.43;8.90;;;;;;;15.80;84.83;101307.44;5096356;28;20202;-70
2021/06/24 05:59:33;;;;;;;15.33;8.53;;;;;;;15.92;84.41;101309.28;5096718;28;20180;-71
2021/06/24 06:01:59;;;;;;;13.00;9.13;;;;;;;15.96;83.86;101296.47;5103448;28;20173;-71
2021/06/24 06:04:24;;;;;;;13.07;8.47;;;;;;;15.93;84.69;101297.56;5101568;28;20211;-69
2021/06/24 06:06:49;;;;;;;12.87;8.17;;;;;;;16.07;84.30;101293.09;5098427;28;20202;-70
2021/06/24 06:09:15;;;;;;;15.97;8.37;;;;;;;16.18;84.15;101290.50;5098419;28;20177;-72
2021/06/24 06:11:43;;;;;;;12.07;8.40;;;;;;;16.19;83.93;101284.16;5094799;28;20178;-69
2021/06/24 06:14:08;;;;;;;13.10;8.20;;;;;;;16.17;84.87;101286.94;5093802;28;20200;-69
2021/06/24 06:16:34;;;;;;;14.97;8.63;;;;;;;16.34;84.03;101290.28;5094890;28;20690;-69
2021/06/24 06:18:59;;;;;;;14.87;8.47;;;;;;;16.29;84.36;101285.22;5095394;28;20584;-72
2021/06/24 06:21:27;;;;;;;17.63;9.20;;;;;;;16.33;84.48;101289.44;5095223;28;20277;-68
2021/06/24 06:23:53;;;;;;;13.40;9.27;;;;;;;16.38;83.98;101284.59;5096434;28;20174;-71
2021/06/24 06:26:18;;;;;;;15.27;8.27;;;;;;;16.54;83.16;101282.53;5095094;28;20635;-71
2021/06/24 06:28:43;;;;;;;18.03;8.03;;;;;;;16.70;82.76;101293.13;5078078;28;20189;-71
2021/06/24 06:31:09;;;;;;;17.93;9.00;;;;;;;16.87;81.48;101298.19;5096004;28;20178;-69
2021/06/24 06:33:34;;;;;;;12.67;7.43;;;;;;;16.96;81.13;101296.66;5094556;28;20219;-71
2021/06/24 06:35:59;;;;;;;11.33;7.07;;;;;;;17.16;80.45;101295.22;5094933;28;20618;-71
2021/06/24 06:38:25;;;;;;;16.20;7.13;;;;;;;17.33;79.49;101307.44;5094571;28;20206;-71
2021/06/24 06:40:50;;;;;;;12.23;6.33;;;;;;;17.43;78.71;101313.88;5094171;28;20182;-69
2021/06/24 06:43:18;;;;;;;23.13;6.87;;;;;;;17.60;77.58;101310.81;5094256;28;20171;-70
2021/06/24 06:45:43;;;;;;;11.53;6.53;;;;;;;17.84;75.97;101309.97;5110655;28;20178;-72
2021/06/24 06:48:09;;;;;;;6.43;5.53;;;;;;;17.93;75.13;101312.84;5077957;28;20194;-71
2021/06/24 06:50:35;;;;;;;7.90;4.83;;;;;;;17.99;75.42;101311.50;5093799;28;20178;-69
2021/06/24 06:53:01;;;;;;;10.03;5.60;;;;;;;18.07;74.25;101319.88;5094511;28;20170;-69
2021/06/24 06:55:29;;;;;;;9.50;5.57;;;;;;;18.14;72.90;101315.72;5094849;28;20178;-71
2021/06/24 06:57:55;;;;;;;9.33;5.27;;;;;;;18.52;72.02;101325.41;5093767;28;20202;-70
2021/06/24 07:00:23;;;;;;;7.73;4.63;;;;;;;18.61;71.60;101322.84;5094053;28;20573;-71
2021/06/24 07:02:49;;;;;;;8.57;4.80;;;;;;;18.65;71.52;101326.22;5095960;28;20166;-71
2021/06/24 07:05:14;;;;;;;10.37;4.97;;;;;;;18.94;69.91;101322.03;5078611;28;20185;-70
2021/06/24 07:07:40;;;;;;;9.97;5.23;;;;;;;18.77;70.25;101325.22;5096045;28;20205;-71
2021/06/24 07:10:05;;;;;;;7.43;4.60;;;;;;;18.91;68.85;101327.69;5096756;28;20169;-72
2021/06/24 07:12:31;;;;;;;7.47;4.27;;;;;;;19.12;67.95;101329.66;5097656;28;20186;-71
2021/06/24 07:14:56;;;;;;;8.47;4.40;;;;;;;19.21;66.85;101321.66;5094136;28;20178;-71
2021/06/24 07:17:22;;;;;;;6.87;4.40;;;;;;;19.07;66.80;101321.06;5075719;28;20214;-70
2021/06/24 07:19:47;;;;;;;7.27;4.20;;;;;;;19.12;66.57;101321.53;5094108;28;20178;-72
2021/06/24 07:22:12;;;;;;;4.90;3.93;;;;;;;19.28;66.27;101314.75;5093595;28;20680;-72
2021/06/24 07:24:37;;;;;;;7.13;4.20;;;;;;;19.51;65.25;101320.97;5092970;28;20174;-71
2021/06/24 07:27:04;;;;;;;7.43;3.97;;;;;;;19.54;64.84;101325.31;5098352;28;20190;-72
2021/06/24 07:29:29;;;;;;;7.13;4.07;;;;;;;19.43;65.40;101318.06;5101638;28;20170;-73
2021/06/24 07:31:54;;;;;;;6.63;4.20;;;;;;;19.69;64.40;101318.59;5096919;28;20550;-72
2021/06/24 07:34:20;;;;;;;7.03;3.93;;;;;;;19.85;63.11;101326.31;5093317;28;20178;-70
2021/06/24 07:36:45;;;;;;;5.40;3.20;;;;;;;19.91;63.60;101328.53;5093027;28;20225;-71
2021/06/24 07:39:11;;;;;;;8.13;4.23;;;;;;;20.18;62.56;101325.31;5094049;28;20170;-70
2021/06/24 07:41:37;;;;;;;5.30;3.63;;;;;;;20.22;62.55;101321.34;5111424;28;20174;-70
2021/06/24 07:44:02;;;;;;;5.97;3.87;;;;;;;20.11;62.50;101319.56;5093324;28;20181;-72
2021/06/24 07:46:28;;;;;;;5.80;4.20;;;;;;;20.13;62.40;101323.00;5097470;28;20535;-71
2021/06/24 07:48:53;;;;;;;5.47;3.80;;;;;;;20.46;60.80;101318.44;5095480;28;20657;-72
2021/06/24 07:51:19;;;;;;;6.50;3.60;;;;;;;20.22;61.34;101322.22;5095950;28;20231;-71
2021/06/24 07:53:44;;;;;;;7.17;4.13;;;;;;;20.36;61.68;101317.44;5078663;28;20178;-71
2021/06/24 07:56:10;;;;;;;4.30;3.47;;;;;;;20.59;61.04;101317.22;5092469;28;20566;-71
2021/06/24 07:58:36;;;;;;;6.63;4.10;;;;;;;20.52;61.42;101321.47;5098537;28;20213;-72
2021/06/24 08:01:02;;;;;;;7.17;4.40;;;;;;;20.62;61.19;101316.09;5095515;28;20170;-72
2021/06/24 08:03:27;;;;;;;6.17;4.00;;;;;;;20.65;61.10;101313.09;5097563;28;20181;-72
2021/06/24 08:05:53;;;;;;;5.10;3.90;;;;;;;19.78;61.91;101301.63;5096636;28;20178;-71
2021/06/24 08:08:18;;;;;;;5.80;3.70;;;;;;;19.92;61.84;101306.72;5094218;28;20198;-71
2021/06/24 08:10:43;;;;;;;6.10;4.00;;;;;;;20.20;60.58;101301.66;5095141;28;20174;-71
2021/06/24 08:13:09;;;;;;;4.50;3.13;;;;;;;20.58;59.77;101306.50;5094960;28;20174;-69
2021/06/24 08:15:34;;;;;;;7.13;3.93;;;;;;;20.85;59.06;101314.06;5092786;28;20177;-70
2021/06/24 08:17:59;;;;;;;5.27;3.70;;;;;;;20.81;60.30;101312.59;5094578;28;20209;-70
2021/06/24 08:20:25;;;;;;;8.67;3.70;;;;;;;20.97;61.28;101301.25;5093479;28;20175;-69
2021/06/24 08:22:50;;;;;;;5.03;3.70;;;;;;;20.92;62.30;101296.25;5092671;28;20271;-71
2021/06/24 08:25:15;;;;;;;5.27;3.57;;;;;;;20.99;61.20;101293.84;5092363;28;20170;-69
2021/06/24 08:27:41;;;;;;;4.83;3.63;;;;;;;21.18;61.07;101292.03;5093228;28;20190;-70
2021/06/24 08:30:07;;;;;;;7.33;4.77;;;;;;;20.82;61.04;101290.78;5091954;28;20174;-68
2021/06/24 08:32:33;;;;;;;5.87;3.57;;;;;;;20.82;61.94;101295.34;5092026;28;20166;-70
2021/06/24 08:34:58;;;;;;;7.50;4.07;;;;;;;20.79;61.90;101293.75;5075386;28;20684;-69
2021/06/24 08:37:23;;;;;;;7.13;4.57;;;;;;;20.91;62.19;101291.81;5092314;28;20201;-69
2021/06/24 08:39:48;;;;;;;7.77;4.50;;;;;;;21.10;61.17;101291.00;5094076;28;20205;-72
2021/06/24 08:42:17;;;;;;;8.07;5.30;;;;;;;21.16;60.92;101304.03;5092631;28;20278;-72
2021/06/24 08:44:45;;;;;;;7.23;5.40;;;;;;;21.16;60.53;101301.31;5094391;28;20581;-71
2021/06/24 08:47:12;;;;;;;9.80;4.77;;;;;;;21.02;60.30;101308.00;5098658;28;20546;-71
2021/06/24 08:49:37;;;;;;;7.57;4.77;;;;;;;20.46;61.76;101307.59;5099195;28;20177;-70
2021/06/24 08:52:03;;;;;;;9.50;5.10;;;;;;;20.18;62.49;101298.22;5083125;28;20231;-71
2021/06/24 08:54:28;;;;;;;8.00;5.07;;;;;;;20.30;61.57;101303.44;5103999;28;20219;-71
2021/06/24 08:56:54;;;;;;;8.13;4.77;;;;;;;20.18;61.95;101309.06;5105605;28;20210;-68
2021/06/24 08:59:19;;;;;;;6.47;4.70;;;;;;;20.41;61.52;101309.81;5102559;28;20179;-71
2021/06/24 09:01:55;;;;;;;9.40;4.70;;;;;;;20.65;60.91;101306.81;5100626;28;20185;-71
2021/06/24 09:04:22;;;;;;;5.87;4.33;;;;;;;20.92;60.78;101318.81;5102309;28;20231;-70
2021/06/24 09:06:48;;;;;;;6.63;4.60;;;;;;;21.03;59.91;101308.84;5121827;28;20218;-70
2021/06/24 09:09:28;;;;;;;7.23;5.07;;;;;;;20.86;60.15;101305.78;5105698;28;20219;-71
2021/06/24 09:12:10;;;;;;;9.67;5.67;;;;;;;21.18;59.37;101305.59;5120677;28;20169;-71
2021/06/24 09:14:46;;;;;;;9.17;5.33;;;;;;;20.99;60.57;101299.25;5089410;28;20178;-71
2021/06/24 09:17:13;;;;;;;8.37;4.33;;;;;;;21.14;59.81;101304.16;5104334;28;20267;-72
2021/06/24 09:19:41;;;;;;;7.17;4.70;;;;;;;20.93;59.83;101300.69;5109852;28;20179;-71
2021/06/24 09:22:12;;;;;;;4.63;3.50;;;;;;;21.21;60.50;101293.63;5106437;28;20170;-69
2021/06/24 09:24:42;;;;;;;7.43;4.47;;;;;;;21.53;58.12;101297.00;5099339;28;20237;-71
2021/06/24 09:27:16;;;;;;;6.80;3.67;;;;;;;21.68;57.41;101289.31;5114210;28;20195;-70
2021/06/24 09:29:42;;;;;;;6.43;3.70;;;;;;;21.03;59.51;101287.13;5098386;28;20515;-73
2021/06/24 09:32:07;;;;;;;6.53;4.27;;;;;;;21.52;57.71;101292.56;5097661;28;20185;-70
2021/06/24 09:34:32;;;;;;;9.87;4.10;;;;;;;21.34;58.03;101287.97;5095884;28;20257;-71
2021/06/24 09:37:03;;;;;;;8.37;4.20;;;;;;;21.50;57.03;101293.72;5099021;28;20206;-72
2021/06/24 09:39:33;;;;;;;7.20;4.10;;;;;;;21.12;57.96;101289.00;5116220;28;20162;-71
2021/06/24 09:42:02;;;;;;;6.67;3.77;;;;;;;21.29;57.93;101288.41;5104908;28;20188;-71
2021/06/24 09:44:29;;;;;;;8.43;4.03;;;;;;;20.84;59.00;101290.66;5087469;28;20170;-70
2021/06/24 09:46:54;;;;;;;6.00;4.23;;;;;;;20.77;59.01;101293.03;5117190;28;20231;-69
2021/06/24 09:49:27;;;;;;;7.97;4.70;;;;;;;20.47;59.59;101287.59;5100119;28;20170;-69
2021/06/24 09:51:53;;;;;;;6.67;3.97;;;;;;;20.51;59.62;101299.91;5114764;28;20177;-72
2021/06/24 09:54:19;;;;;;;5.57;3.67;;;;;;;20.75;58.80;101296.88;5098107;28;20171;-71
2021/06/24 09:56:51;;;;;;;7.03;3.87;;;;;;;20.90;59.33;101301.81;5096433;28;20206;-73
2021/06/24 09:59:18;;;;;;;8.43;4.17;;;;;;;20.48;59.35;101295.59;5106234;28;20196;-69
2021/06/24 10:01:44;;;;;;;10.27;3.90;;;;;;;20.04;59.41;101293.97;5101007;28;20181;-70
2021/06/24 10:04:31;;;;;;;7.03;4.20;;;;;;;19.88;60.54;101296.28;5097835;28;20167;-70
2021/06/24 10:07:00;;;;;;;8.17;3.93;;;;;;;20.38;59.50;101291.94;5124292;22;20240;-74
2021/06/24 10:09:27;;;;;;;6.40;3.33;;;;;;;20.67;59.56;101302.97;5095857;28;20178;-73
2021/06/24 10:11:53;;;;;;;8.90;3.30;;;;;;;20.85;60.05;101305.94;5077602;28;20205;-72
2021/06/24 10:14:19;;;;;;;7.80;3.67;;;;;;;21.04;59.32;101303.28;5095557;28;20554;-74
2021/06/24 10:16:56;;;;;;;6.10;3.97;;;;;;;21.15;58.37;101300.44;5102404;28;20190;-73
2021/06/24 10:19:30;;;;;;;6.27;3.57;;;;;;;21.23;58.20;101305.25;5091690;28;20181;-72
2021/06/24 10:22:11;;;;;;;9.57;4.50;;;;;;;21.36;57.16;101299.56;5081045;28;20177;-73
2021/06/24 10:24:45;;;;;;;5.33;3.90;;;;;;;21.29;57.76;101301.97;5096091;28;20154;-72
2021/06/24 10:27:11;;;;;;;10.07;4.23;;;;;;;21.21;58.25;101294.50;5096699;28;20186;-71
2021/06/24 10:29:46;;;;;;;7.27;3.80;;;;;;;21.07;59.46;101296.72;5094491;28;20186;-72
2021/06/24 10:32:25;;;;;;;7.07;4.80;;;;;;;20.99;58.66;101304.69;5111217;28;20185;-73
2021/06/24 10:34:52;;;;;;;8.80;4.60;;;;;;;20.29;60.45;101290.00;5109348;28;20185;-72
2021/06/24 10:37:22;;;;;;;8.43;4.40;;;;;;;20.20;62.49;101299.81;5112695;28;20229;-72
2021/06/24 10:39:48;;;;;;;7.50;4.40;;;;;;;20.12;61.90;101296.91;5128416;28;20167;-72
2021/06/24 10:42:15;;;;;;;7.93;4.17;;;;;;;20.25;62.00;101299.41;5112146;28;20220;-71
2021/06/24 10:44:43;;;;;;;7.77;4.27;;;;;;;20.20;63.68;101291.69;5103702;28;20633;-73
2021/06/24 10:47:09;;;;;;;8.93;3.87;;;;;;;19.91;62.27;101294.16;5095197;28;20194;-72
2021/06/24 10:49:35;;;;;;;7.60;3.40;;;;;;;19.33;62.27;101290.91;5093851;28;20174;-72
2021/06/24 10:52:26;;;;;;;6.37;4.57;;;;;;;19.08;63.11;101296.59;5095274;28;20178;-72
2021/06/24 10:54:56;;;;;;;7.23;3.23;;;;;;;19.30;64.05;101301.94;5095341;28;20158;-72
2021/06/24 10:57:37;;;;;;;9.83;4.20;;;;;;;19.24;63.49;101296.19;5093034;28;20229;-71
2021/06/24 11:00:40;;;;;;;5.67;3.33;;;;;;;18.89;64.14;101296.34;5109850;28;20186;-72
2021/06/24 11:03:08;;;;;;;4.53;2.83;;;;;;;19.03;64.18;101293.41;5094250;28;20177;-72
2021/06/24 11:05:41;;;;;;;6.77;3.13;;;;;;;19.00;62.66;101289.09;5092892;28;20178;-72
2021/06/24 11:08:10;;;;;;;4.80;3.27;;;;;;;19.02;61.68;101289.81;5093221;28;20569;-72
2021/06/24 11:10:56;;;;;;;5.60;3.37;;;;;;;19.04;65.33;101293.28;5092774;28;20181;-71
2021/06/24 11:13:37;;;;;;;7.27;3.60;;;;;;;19.14;64.09;101284.41;5093655;28;20162;-72
2021/06/24 11:16:09;;;;;;;5.07;3.00;;;;;;;19.22;64.66;101282.78;5093966;28;20661;-72